sensor_id;sensor_type;location;lat;lon;timestamp;pressure;altitude;pressure_sealevel;temperature;humidity
21111;BME280;10713;51.912;4.494;2023-11-19T00:02:13;100858.34;;;13.56;100.00
21111;BME280;10713;51.912;4.494;2023-11-19T00:04:38;100855.84;;;13.53;100.00
21111;BME280;10713;51.912;4.494;2023-11-19T00:07:06;100854.84;;;13.56;100.00
21111;BME280;10713;51.912;4.494;2023-11-19T00:09:33;100861.16;;;13.53;100.00
21111;BME280;10713;51.912;4.494;2023-11-19T00:11:59;100857.50;;;13.56;100.00
21111;BME280;10713;51.912;4.494;2023-11-19T00:14:25;100862.03;;;13.54;100.00
21111;BME280;10713;51.912;4.494;2023-11-19T00:16:51;100875.16;;;13.57;100.00
21111;BME280;10713;51.912;4.494;2023-11-19T00:19:16;100872.50;;;13.57;100.00
21111;BME280;10713;51.912;4.494;2023-11-19T00:21:42;100888.47;;;13.55;100.00
21111;BME280;10713;51.912;4.494;2023-11-19T00:24:08;100865.41;;;13.57;100.00
21111;BME280;10713;51.912;4.494;2023-11-19T00:26:33;100870.75;;;13.56;100.00
21111;BME280;10713;51.912;4.494;2023-11-19T00:28:59;100876.06;;;13.56;100.00
21111;BME280;10713;51.912;4.494;2023-11-19T00:31:24;100870.06;;;13.35;100.00
21111;BME280;10713;51.912;4.494;2023-11-19T00:33:51;100868.81;;;13.42;100.00
21111;BME280;10713;51.912;4.494;2023-11-19T00:36:16;100862.34;;;13.47;100.00
21111;BME280;10713;51.912;4.494;2023-11-19T00:38:42;100870.28;;;13.47;100.00
21111;BME280;10713;51.912;4.494;2023-11-19T00:41:07;100867.88;;;13.43;100.00
21111;BME280;10713;51.912;4.494;2023-11-19T00:43:33;100884.66;;;13.43;100.00
21111;BME280;10713;51.912;4.494;2023-11-19T00:45:58;100869.69;;;13.42;100.00
21111;BME280;10713;51.912;4.494;2023-11-19T00:48:23;100878.41;;;13.44;100.00
21111;BME280;10713;51.912;4.494;2023-11-19T00:50:49;100867.09;;;13.41;100.00
21111;BME280;10713;51.912;4.494;2023-11-19T00:53:14;100848.69;;;13.38;100.00
21111;BME280;10713;51.912;4.494;2023-11-19T00:55:39;100832.84;;;13.36;100.00
21111;BME280;10713;51.912;4.494;2023-11-19T00:58:05;100834.81;;;13.33;100.00
21111;BME280;10713;51.912;4.494;2023-11-19T01:00:30;100831.44;;;13.12;100.00
21111;BME280;10713;51.912;4.494;2023-11-19T01:02:57;100847.63;;;13.05;100.00
21111;BME280;10713;51.912;4.494;2023-11-19T01:05:23;100840.22;;;13.12;100.00
21111;BME280;10713;51.912;4.494;2023-11-19T01:07:48;100835.94;;;13.10;100.00
21111;BME280;10713;51.912;4.494;2023-11-19T01:10:14;100837.63;;;12.93;100.00
21111;BME280;10713;51.912;4.494;2023-11-19T01:12:41;100833.56;;;12.86;100.00
21111;BME280;10713;51.912;4.494;2023-11-19T01:15:07;100825.53;;;12.88;100.00
21111;BME280;10713;51.912;4.494;2023-11-19T01:17:32;100823.13;;;12.83;100.00
21111;BME280;10713;51.912;4.494;2023-11-19T01:19:58;100840.19;;;12.77;100.00
21111;BME280;10713;51.912;4.494;2023-11-19T01:22:23;100830.59;;;12.75;100.00
21111;BME280;10713;51.912;4.494;2023-11-19T01:24:48;100818.44;;;12.71;100.00
21111;BME280;10713;51.912;4.494;2023-11-19T01:27:14;100830.94;;;12.67;100.00
21111;BME280;10713;51.912;4.494;2023-11-19T01:29:39;100829.25;;;12.66;100.00
21111;BME280;10713;51.912;4.494;2023-11-19T01:32:05;100828.69;;;12.59;100.00
21111;BME280;10713;51.912;4.494;2023-11-19T01:34:30;100826.34;;;12.53;100.00
21111;BME280;10713;51.912;4.494;2023-11-19T01:36:56;100836.28;;;12.48;100.00
21111;BME280;10713;51.912;4.494;2023-11-19T01:39:21;100839.44;;;12.56;100.00
21111;BME280;10713;51.912;4.494;2023-11-19T01:41:47;100836.97;;;12.52;100.00
21111;BME280;10713;51.912;4.494;2023-11-19T01:44:12;100836.13;;;12.51;100.00
21111;BME280;10713;51.912;4.494;2023-11-19T01:46:38;100827.47;;;12.48;100.00
21111;BME280;10713;51.912;4.494;2023-11-19T01:49:05;100830.25;;;12.45;100.00
21111;BME280;10713;51.912;4.494;2023-11-19T01:51:31;100824.25;;;12.41;100.00
21111;BME280;10713;51.912;4.494;2023-11-19T01:53:58;100816.69;;;12.33;100.00
21111;BME280;10713;51.912;4.494;2023-11-19T01:56:24;100810.75;;;12.28;100.00
21111;BME280;10713;51.912;4.494;2023-11-19T01:58:51;100819.69;;;12.26;100.00
21111;BME280;10713;51.912;4.494;2023-11-19T02:01:19;100831.97;;;12.27;100.00
21111;BME280;10713;51.912;4.494;2023-11-19T02:03:44;100851.31;;;12.29;100.00
21111;BME280;10713;51.912;4.494;2023-11-19T02:06:12;100844.16;;;12.31;100.00
21111;BME280;10713;51.912;4.494;2023-11-19T02:08:37;100839.63;;;12.33;100.00
21111;BME280;10713;51.912;4.494;2023-11-19T02:11:04;100845.06;;;12.30;100.00
21111;BME280;10713;51.912;4.494;2023-11-19T02:13:32;100855.66;;;12.30;100.00
21111;BME280;10713;51.912;4.494;2023-11-19T02:15:57;100845.06;;;12.30;100.00
21111;BME280;10713;51.912;4.494;2023-11-19T02:18:25;100854.09;;;12.26;100.00
21111;BME280;10713;51.912;4.494;2023-11-19T02:21:01;100840.06;;;12.24;100.00
21111;BME280;10713;51.912;4.494;2023-11-19T02:23:27;100833.13;;;12.21;100.00
21111;BME280;10713;51.912;4.494;2023-11-19T02:28:42;100843.94;;;12.16;100.00
21111;BME280;10713;51.912;4.494;2023-11-19T02:31:08;100848.56;;;12.11;100.00
21111;BME280;10713;51.912;4.494;2023-11-19T02:33:35;100840.69;;;12.10;100.00
21111;BME280;10713;51.912;4.494;2023-11-19T02:36:01;100838.19;;;12.07;100.00
21111;BME280;10713;51.912;4.494;2023-11-19T02:38:28;100836.38;;;12.07;100.00
21111;BME280;10713;51.912;4.494;2023-11-19T02:40:54;100826.88;;;12.03;100.00
21111;BME280;10713;51.912;4.494;2023-11-19T02:43:19;100828.81;;;12.00;100.00
21111;BME280;10713;51.912;4.494;2023-11-19T02:45:45;100843.97;;;11.96;100.00
21111;BME280;10713;51.912;4.494;2023-11-19T02:48:10;100841.44;;;11.93;100.00
21111;BME280;10713;51.912;4.494;2023-11-19T02:50:36;100827.38;;;11.92;100.00
21111;BME280;10713;51.912;4.494;2023-11-19T02:53:02;100826.50;;;11.92;100.00
21111;BME280;10713;51.912;4.494;2023-11-19T02:55:27;100828.31;;;11.91;100.00
21111;BME280;10713;51.912;4.494;2023-11-19T02:57:55;100828.44;;;11.88;100.00
21111;BME280;10713;51.912;4.494;2023-11-19T03:00:24;100831.22;;;11.85;100.00
21111;BME280;10713;51.912;4.494;2023-11-19T03:02:51;100839.16;;;11.85;100.00
21111;BME280;10713;51.912;4.494;2023-11-19T03:05:25;100840.03;;;11.86;100.00
21111;BME280;10713;51.912;4.494;2023-11-19T03:07:51;100840.97;;;11.83;100.00
21111;BME280;10713;51.912;4.494;2023-11-19T03:10:17;100850.69;;;11.83;100.00
21111;BME280;10713;51.912;4.494;2023-11-19T03:12:43;100831.38;;;11.81;100.00
21111;BME280;10713;51.912;4.494;2023-11-19T03:15:09;100831.38;;;11.81;100.00
21111;BME280;10713;51.912;4.494;2023-11-19T03:17:44;100818.25;;;11.79;100.00
21111;BME280;10713;51.912;4.494;2023-11-19T03:20:10;100813.09;;;11.76;100.00
21111;BME280;10713;51.912;4.494;2023-11-19T03:22:39;100806.94;;;11.76;100.00
21111;BME280;10713;51.912;4.494;2023-11-19T03:25:07;100809.78;;;11.71;100.00
21111;BME280;10713;51.912;4.494;2023-11-19T03:27:34;100819.44;;;11.72;100.00
21111;BME280;10713;51.912;4.494;2023-11-19T03:30:01;100814.16;;;11.72;100.00
21111;BME280;10713;51.912;4.494;2023-11-19T03:32:26;100815.09;;;11.71;100.00
21111;BME280;10713;51.912;4.494;2023-11-19T03:34:52;100812.50;;;11.69;100.00
21111;BME280;10713;51.912;4.494;2023-11-19T03:37:18;100817.91;;;11.66;100.00
21111;BME280;10713;51.912;4.494;2023-11-19T03:39:43;100826.72;;;11.67;100.00
21111;BME280;10713;51.912;4.494;2023-11-19T03:42:08;100829.44;;;11.65;100.00
21111;BME280;10713;51.912;4.494;2023-11-19T03:44:34;100827.56;;;11.67;100.00
21111;BME280;10713;51.912;4.494;2023-11-19T03:46:59;100816.25;;;11.64;100.00
21111;BME280;10713;51.912;4.494;2023-11-19T03:49:24;100825.13;;;11.63;100.00
21111;BME280;10713;51.912;4.494;2023-11-19T03:51:50;100819.00;;;11.62;100.00
21111;BME280;10713;51.912;4.494;2023-11-19T03:54:15;100817.13;;;11.64;100.00
21111;BME280;10713;51.912;4.494;2023-11-19T03:56:40;100808.34;;;11.64;100.00
21111;BME280;10713;51.912;4.494;2023-11-19T03:59:06;100814.47;;;11.64;100.00
21111;BME280;10713;51.912;4.494;2023-11-19T04:01:31;100816.34;;;11.62;100.00
21111;BME280;10713;51.912;4.494;2023-11-19T04:03:56;100822.63;;;11.60;100.00
21111;BME280;10713;51.912;4.494;2023-11-19T04:06:21;100823.47;;;11.60;100.00
21111;BME280;10713;51.912;4.494;2023-11-19T04:08:47;100828.78;;;11.60;100.00
21111;BME280;10713;51.912;4.494;2023-11-19T04:11:12;100821.81;;;11.58;100.00
21111;BME280;10713;51.912;4.494;2023-11-19T04:13:38;100813.91;;;11.58;100.00
21111;BME280;10713;51.912;4.494;2023-11-19T04:16:03;100820.97;;;11.57;100.00
21111;BME280;10713;51.912;4.494;2023-11-19T04:18:29;100828.78;;;11.60;100.00
21111;BME280;10713;51.912;4.494;2023-11-19T04:20:55;100840.28;;;11.59;100.00
21111;BME280;10713;51.912;4.494;2023-11-19T04:23:20;100832.50;;;11.56;100.00
21111;BME280;10713;51.912;4.494;2023-11-19T04:25:45;100831.47;;;11.59;100.00
21111;BME280;10713;51.912;4.494;2023-11-19T04:28:11;100833.25;;;11.58;100.00
21111;BME280;10713;51.912;4.494;2023-11-19T04:30:36;100843.06;;;11.56;100.00
21111;BME280;10713;51.912;4.494;2023-11-19T04:33:02;100824.56;;;11.56;100.00
21111;BME280;10713;51.912;4.494;2023-11-19T04:35:28;100839.53;;;11.56;100.00
21111;BME280;10713;51.912;4.494;2023-11-19T04:37:53;100841.06;;;11.61;100.00
21111;BME280;10713;51.912;4.494;2023-11-19T04:40:22;100846.94;;;11.68;100.00
21111;BME280;10713;51.912;4.494;2023-11-19T04:42:48;100830.94;;;11.71;100.00
21111;BME280;10713;51.912;4.494;2023-11-19T04:45:13;100839.75;;;11.71;100.00
21111;BME280;10713;51.912;4.494;2023-11-19T04:47:39;100838.88;;;11.71;100.00
21111;BME280;10713;51.912;4.494;2023-11-19T04:50:04;100841.72;;;11.66;100.00
21111;BME280;10713;51.912;4.494;2023-11-19T04:52:30;100844.50;;;11.63;100.00
21111;BME280;10713;51.912;4.494;2023-11-19T04:54:55;100835.91;;;11.58;100.00
21111;BME280;10713;51.912;4.494;2023-11-19T04:57:21;100835.91;;;11.58;100.00
21111;BME280;10713;51.912;4.494;2023-11-19T04:59:46;100832.50;;;11.56;100.00
21111;BME280;10713;51.912;4.494;2023-11-19T05:02:12;100829.91;;;11.55;100.00
21111;BME280;10713;51.912;4.494;2023-11-19T05:04:42;100843.13;;;11.55;100.00
21111;BME280;10713;51.912;4.494;2023-11-19T05:07:07;100832.34;;;11.59;100.00
21111;BME280;10713;51.912;4.494;2023-11-19T05:09:33;100828.91;;;11.57;100.00
21111;BME280;10713;51.912;4.494;2023-11-19T05:11:58;100839.41;;;11.59;100.00
21111;BME280;10713;51.912;4.494;2023-11-19T05:14:24;100842.97;;;11.58;100.00
21111;BME280;10713;51.912;4.494;2023-11-19T05:16:49;100849.13;;;11.58;100.00
21111;BME280;10713;51.912;4.494;2023-11-19T05:19:15;100835.91;;;11.58;100.00
21111;BME280;10713;51.912;4.494;2023-11-19T05:21:43;100846.28;;;11.63;100.00
21111;BME280;10713;51.912;4.494;2023-11-19T05:24:08;100840.16;;;11.62;100.00
21111;BME280;10713;51.912;4.494;2023-11-19T05:26:34;100842.94;;;11.59;100.00
21111;BME280;10713;51.912;4.494;2023-11-19T05:28:59;100842.97;;;11.58;100.00
21111;BME280;10713;51.912;4.494;2023-11-19T05:31:24;100856.19;;;11.58;100.00
21111;BME280;10713;51.912;4.494;2023-11-19T05:33:50;100855.25;;;11.59;100.00
21111;BME280;10713;51.912;4.494;2023-11-19T05:36:15;100836.75;;;11.59;100.00
21111;BME280;10713;51.912;4.494;2023-11-19T05:38:41;100848.28;;;11.58;100.00
21111;BME280;10713;51.912;4.494;2023-11-19T05:41:06;100848.34;;;11.56;100.00
21111;BME280;10713;51.912;4.494;2023-11-19T05:43:32;100834.19;;;11.57;100.00
21111;BME280;10713;51.912;4.494;2023-11-19T05:45:58;100837.63;;;11.59;100.00
21111;BME280;10713;51.912;4.494;2023-11-19T05:48:25;100831.56;;;11.57;100.00
21111;BME280;10713;51.912;4.494;2023-11-19T05:50:51;100829.72;;;11.59;100.00
21111;BME280;10713;51.912;4.494;2023-11-19T05:53:16;100828.06;;;11.57;100.00
21111;BME280;10713;51.912;4.494;2023-11-19T05:55:41;100839.75;;;11.51;100.00
21111;BME280;10713;51.912;4.494;2023-11-19T05:58:14;100838.09;;;11.48;100.00
21111;BME280;10713;51.912;4.494;2023-11-19T06:00:40;100842.72;;;11.43;100.00
21111;BME280;10713;51.912;4.494;2023-11-19T06:03:08;100844.56;;;11.41;100.00
21111;BME280;10713;51.912;4.494;2023-11-19T06:05:33;100848.13;;;11.40;100.00
21111;BME280;10713;51.912;4.494;2023-11-19T06:07:59;100841.19;;;11.38;100.00
21111;BME280;10713;51.912;4.494;2023-11-19T06:10:24;100834.19;;;11.37;100.00
21111;BME280;10713;51.912;4.494;2023-11-19T06:12:58;100835.09;;;11.36;100.00
21111;BME280;10713;51.912;4.494;2023-11-19T06:15:27;100839.63;;;11.34;100.00
21111;BME280;10713;51.912;4.494;2023-11-19T06:17:53;100830.88;;;11.32;100.00
21111;BME280;10713;51.912;4.494;2023-11-19T06:20:19;100831.81;;;11.31;100.00
21111;BME280;10713;51.912;4.494;2023-11-19T06:22:45;100834.38;;;11.32;100.00
21111;BME280;10713;51.912;4.494;2023-11-19T06:25:11;100824.78;;;11.30;100.00
21111;BME280;10713;51.912;4.494;2023-11-19T06:27:36;100831.00;;;11.28;100.00
21111;BME280;10713;51.912;4.494;2023-11-19T06:30:02;100826.59;;;11.29;100.00
21111;BME280;10713;51.912;4.494;2023-11-19T06:32:27;100841.59;;;11.28;100.00
21111;BME280;10713;51.912;4.494;2023-11-19T06:34:53;100858.38;;;11.27;100.00
21111;BME280;10713;51.912;4.494;2023-11-19T06:37:19;100849.56;;;11.27;100.00
21111;BME280;10713;51.912;4.494;2023-11-19T06:39:44;100851.22;;;11.30;100.00
21111;BME280;10713;51.912;4.494;2023-11-19T06:42:09;100861.78;;;11.30;100.00
21111;BME280;10713;51.912;4.494;2023-11-19T06:44:35;100852.84;;;11.34;100.00
21111;BME280;10713;51.912;4.494;2023-11-19T06:47:00;100863.41;;;11.34;100.00
21111;BME280;10713;51.912;4.494;2023-11-19T06:49:25;100853.59;;;11.36;100.00
21111;BME280;10713;51.912;4.494;2023-11-19T06:51:51;100871.25;;;11.35;100.00
21111;BME280;10713;51.912;4.494;2023-11-19T06:54:16;100860.63;;;11.37;100.00
21111;BME280;10713;51.912;4.494;2023-11-19T06:56:42;100867.44;;;11.42;100.00
21111;BME280;10713;51.912;4.494;2023-11-19T06:59:07;100882.31;;;11.45;100.00
21111;BME280;10713;51.912;4.494;2023-11-19T07:01:36;100868.03;;;11.49;100.00
21111;BME280;10713;51.912;4.494;2023-11-19T07:04:02;100867.75;;;11.55;100.00
21111;BME280;10713;51.912;4.494;2023-11-19T07:06:33;100892.28;;;11.59;100.00
21111;BME280;10713;51.912;4.494;2023-11-19T07:08:59;100880.72;;;11.61;100.00
21111;BME280;10713;51.912;4.494;2023-11-19T07:11:27;100876.94;;;11.67;100.00
21111;BME280;10713;51.912;4.494;2023-11-19T07:13:53;100879.31;;;11.73;100.00
21111;BME280;10713;51.912;4.494;2023-11-19T07:16:19;100876.56;;;11.76;100.00
21111;BME280;10713;51.912;4.494;2023-11-19T07:18:46;100877.34;;;11.78;100.00
21111;BME280;10713;51.912;4.494;2023-11-19T07:21:15;100871.00;;;11.82;100.00
21111;BME280;10713;51.912;4.494;2023-11-19T07:23:40;100863.06;;;11.82;100.00
21111;BME280;10713;51.912;4.494;2023-11-19T07:26:07;100859.50;;;11.83;100.00
21111;BME280;10713;51.912;4.494;2023-11-19T07:28:35;100877.94;;;11.85;100.00
21111;BME280;10713;51.912;4.494;2023-11-19T07:31:00;100872.66;;;11.85;100.00
21111;BME280;10713;51.912;4.494;2023-11-19T07:33:25;100882.34;;;11.86;100.00
21111;BME280;10713;51.912;4.494;2023-11-19T07:35:51;100877.84;;;11.88;100.00
21111;BME280;10713;51.912;4.494;2023-11-19T07:38:17;100881.22;;;11.91;100.00
21111;BME280;10713;51.912;4.494;2023-11-19T07:40:42;100881.94;;;11.95;100.00
21111;BME280;10713;51.912;4.494;2023-11-19T07:43:07;100877.50;;;11.95;100.00
21111;BME280;10713;51.912;4.494;2023-11-19T07:45:33;100877.50;;;11.95;100.00
21111;BME280;10713;51.912;4.494;2023-11-19T07:47:59;100873.94;;;11.97;100.00
21111;BME280;10713;51.912;4.494;2023-11-19T07:50:26;100884.56;;;11.95;100.00
21111;BME280;10713;51.912;4.494;2023-11-19T07:52:51;100879.22;;;11.97;100.00
21111;BME280;10713;51.912;4.494;2023-11-19T07:55:17;100874.22;;;12.09;100.00
21111;BME280;10713;51.912;4.494;2023-11-19T07:57:42;100870.59;;;12.12;100.00
21111;BME280;10713;51.912;4.494;2023-11-19T08:00:08;100868.50;;;12.18;100.00
21111;BME280;10713;51.912;4.494;2023-11-19T08:02:37;100867.66;;;12.18;100.00
21111;BME280;10713;51.912;4.494;2023-11-19T08:05:03;100870.81;;;12.26;100.00
21111;BME280;10713;51.912;4.494;2023-11-19T08:07:28;100874.03;;;12.33;100.00
21111;BME280;10713;51.912;4.494;2023-11-19T08:09:53;100872.50;;;12.48;100.00
21111;BME280;10713;51.912;4.494;2023-11-19T08:12:19;100870.41;;;12.54;100.00
21111;BME280;10713;51.912;4.494;2023-11-19T08:14:44;100878.19;;;12.57;100.00
21111;BME280;10713;51.912;4.494;2023-11-19T08:17:09;100874.63;;;12.58;100.00
21111;BME280;10713;51.912;4.494;2023-11-19T08:19:35;100881.34;;;12.66;100.00
21111;BME280;10713;51.912;4.494;2023-11-19T08:22:00;100880.50;;;12.65;100.00
21111;BME280;10713;51.912;4.494;2023-11-19T08:24:26;100880.91;;;12.75;100.00
21111;BME280;10713;51.912;4.494;2023-11-19T08:26:51;100884.34;;;12.77;100.00
21111;BME280;10713;51.912;4.494;2023-11-19T08:29:16;100893.06;;;12.79;100.00
21111;BME280;10713;51.912;4.494;2023-11-19T08:31:42;100889.69;;;12.94;100.00
21111;BME280;10713;51.912;4.494;2023-11-19T08:34:07;100873.50;;;13.37;100.00
21111;BME280;10713;51.912;4.494;2023-11-19T08:36:34;100877.50;;;13.45;100.00
21111;BME280;10713;51.912;4.494;2023-11-19T08:38:59;100875.59;;;13.30;100.00
21111;BME280;10713;51.912;4.494;2023-11-19T08:41:25;100870.69;;;13.57;100.00
21111;BME280;10713;51.912;4.494;2023-11-19T08:43:50;100881.41;;;14.22;100.00
21111;BME280;10713;51.912;4.494;2023-11-19T08:46:17;100881.69;;;14.33;100.00
21111;BME280;10713;51.912;4.494;2023-11-19T08:48:42;100877.78;;;14.07;100.00
21111;BME280;10713;51.912;4.494;2023-11-19T08:51:07;100871.66;;;13.89;100.00
21111;BME280;10713;51.912;4.494;2023-11-19T08:53:33;100874.81;;;13.80;100.00
21111;BME280;10713;51.912;4.494;2023-11-19T08:55:59;100878.78;;;13.89;100.00
21111;BME280;10713;51.912;4.494;2023-11-19T08:58:25;100861.06;;;14.23;100.00
21111;BME280;10713;51.912;4.494;2023-11-19T09:00:51;100853.19;;;14.37;100.00
21111;BME280;10713;51.912;4.494;2023-11-19T09:03:16;100859.22;;;14.56;100.00
21111;BME280;10713;51.912;4.494;2023-11-19T09:05:41;100862.31;;;14.80;100.00
21111;BME280;10713;51.912;4.494;2023-11-19T09:08:06;100858.56;;;14.69;100.00
21111;BME280;10713;51.912;4.494;2023-11-19T09:10:32;100859.97;;;14.42;100.00
21111;BME280;10713;51.912;4.494;2023-11-19T09:12:57;100868.75;;;14.27;100.00
21111;BME280;10713;51.912;4.494;2023-11-19T09:15:23;100863.44;;;14.11;100.00
21111;BME280;10713;51.912;4.494;2023-11-19T09:17:49;100859.81;;;13.96;100.00
21111;BME280;10713;51.912;4.494;2023-11-19T09:20:14;100865.25;;;13.93;100.00
21111;BME280;10713;51.912;4.494;2023-11-19T09:22:41;100867.34;;;14.53;100.00
21111;BME280;10713;51.912;4.494;2023-11-19T09:25:07;100871.56;;;15.65;100.00
21111;BME280;10713;51.912;4.494;2023-11-19T09:27:32;100864.72;;;16.61;100.00
21111;BME280;10713;51.912;4.494;2023-11-19T09:29:57;100848.19;;;17.38;100.00
21111;BME280;10713;51.912;4.494;2023-11-19T09:32:24;100835.09;;;18.11;100.00
21111;BME280;10713;51.912;4.494;2023-11-19T09:34:49;100836.69;;;18.76;100.00
21111;BME280;10713;51.912;4.494;2023-11-19T09:37:15;100826.16;;;18.12;100.00
21111;BME280;10713;51.912;4.494;2023-11-19T09:39:40;100841.59;;;17.03;100.00
21111;BME280;10713;51.912;4.494;2023-11-19T09:42:09;100848.13;;;16.29;100.00
21111;BME280;10713;51.912;4.494;2023-11-19T09:44:37;100860.47;;;15.73;100.00
21111;BME280;10713;51.912;4.494;2023-11-19T09:47:04;100839.69;;;15.80;100.00
21111;BME280;10713;51.912;4.494;2023-11-19T09:49:30;100857.59;;;16.76;100.00
21111;BME280;10713;51.912;4.494;2023-11-19T09:51:55;100829.94;;;17.44;100.00
21111;BME280;10713;51.912;4.494;2023-11-19T09:54:21;100849.06;;;17.11;100.00
21111;BME280;10713;51.912;4.494;2023-11-19T09:56:47;100864.31;;;16.67;100.00
21111;BME280;10713;51.912;4.494;2023-11-19T09:59:14;100839.38;;;16.27;100.00
21111;BME280;10713;51.912;4.494;2023-11-19T10:01:39;100871.25;;;16.00;100.00
21111;BME280;10713;51.912;4.494;2023-11-19T10:04:06;100843.34;;;15.63;100.00
21111;BME280;10713;51.912;4.494;2023-11-19T10:06:32;100852.66;;;15.25;100.00
21111;BME280;10713;51.912;4.494;2023-11-19T10:08:57;100842.16;;;15.08;100.00
21111;BME280;10713;51.912;4.494;2023-11-19T10:11:24;100848.72;;;15.17;100.00
21111;BME280;10713;51.912;4.494;2023-11-19T10:13:51;100852.75;;;15.38;100.00
21111;BME280;10713;51.912;4.494;2023-11-19T10:16:17;100848.25;;;15.54;100.00
21111;BME280;10713;51.912;4.494;2023-11-19T10:18:46;100842.63;;;15.59;100.00
21111;BME280;10713;51.912;4.494;2023-11-19T10:21:13;100828.22;;;15.63;100.00
21111;BME280;10713;51.912;4.494;2023-11-19T10:23:53;100825.22;;;15.69;100.00
21111;BME280;10713;51.912;4.494;2023-11-19T10:26:19;100841.38;;;15.81;100.00
21111;BME280;10713;51.912;4.494;2023-11-19T10:28:46;100830.81;;;15.79;100.00
21111;BME280;10713;51.912;4.494;2023-11-19T10:31:15;100838.81;;;15.79;100.00
21111;BME280;10713;51.912;4.494;2023-11-19T10:33:41;100819.31;;;15.79;100.00
21111;BME280;10713;51.912;4.494;2023-11-19T10:36:07;100829.13;;;15.78;100.00
21111;BME280;10713;51.912;4.494;2023-11-19T10:38:33;100828.47;;;15.74;100.00
21111;BME280;10713;51.912;4.494;2023-11-19T10:40:58;100835.00;;;15.39;100.00
21111;BME280;10713;51.912;4.494;2023-11-19T10:43:24;100836.69;;;15.25;100.00
21111;BME280;10713;51.912;4.494;2023-11-19T10:45:50;100843.56;;;15.14;100.00
21111;BME280;10713;51.912;4.494;2023-11-19T10:48:16;100838.66;;;14.92;100.00
21111;BME280;10713;51.912;4.494;2023-11-19T10:50:44;100829.47;;;14.81;100.00
21111;BME280;10713;51.912;4.494;2023-11-19T10:53:11;100830.59;;;14.77;100.00
21111;BME280;10713;51.912;4.494;2023-11-19T10:55:41;100836.69;;;14.79;100.00
21111;BME280;10713;51.912;4.494;2023-11-19T10:58:10;100844.31;;;14.85;100.00
21111;BME280;10713;51.912;4.494;2023-11-19T11:00:57;100833.34;;;14.92;100.00
21111;BME280;10713;51.912;4.494;2023-11-19T11:03:25;100831.09;;;15.00;100.00
21111;BME280;10713;51.912;4.494;2023-11-19T11:05:52;100829.78;;;15.07;100.00
21111;BME280;10713;51.912;4.494;2023-11-19T11:08:19;100827.44;;;15.17;100.00
21111;BME280;10713;51.912;4.494;2023-11-19T11:10:46;100827.28;;;15.20;100.00
21111;BME280;10713;51.912;4.494;2023-11-19T11:13:13;100830.97;;;15.17;100.00
21111;BME280;10713;51.912;4.494;2023-11-19T11:15:39;100843.50;;;14.99;100.00
21111;BME280;10713;51.912;4.494;2023-11-19T11:18:08;100824.56;;;14.90;100.00
21111;BME280;10713;51.912;4.494;2023-11-19T11:20:34;100821.31;;;14.84;100.00
21111;BME280;10713;51.912;4.494;2023-11-19T11:28:37;100812.78;;;15.09;100.00
21111;BME280;10713;51.912;4.494;2023-11-19T11:37:09;100800.94;;;15.15;100.00
21111;BME280;10713;51.912;4.494;2023-11-19T11:39:36;100799.75;;;15.05;100.00
21111;BME280;10713;51.912;4.494;2023-11-19T11:47:23;100787.56;;;15.17;100.00
21111;BME280;10713;51.912;4.494;2023-11-19T11:49:49;100791.09;;;15.17;100.00
21111;BME280;10713;51.912;4.494;2023-11-19T11:52:16;100793.75;;;15.17;100.00
21111;BME280;10713;51.912;4.494;2023-11-19T11:54:42;100787.94;;;15.25;100.00
21111;BME280;10713;51.912;4.494;2023-11-19T11:57:11;100778.44;;;15.21;100.00
21111;BME280;10713;51.912;4.494;2023-11-19T12:02:07;100782.06;;;15.20;100.00
21111;BME280;10713;51.912;4.494;2023-11-19T12:04:34;100793.56;;;15.20;100.00
21111;BME280;10713;51.912;4.494;2023-11-19T12:09:28;100787.84;;;15.12;100.00
21111;BME280;10713;51.912;4.494;2023-11-19T12:12:22;100776.41;;;15.10;100.00
21111;BME280;10713;51.912;4.494;2023-11-19T12:15:05;100774.16;;;15.18;100.00
21111;BME280;10713;51.912;4.494;2023-11-19T12:20:05;100774.75;;;15.23;100.00
21111;BME280;10713;51.912;4.494;2023-11-19T12:22:33;100769.22;;;15.12;100.00
21111;BME280;10713;51.912;4.494;2023-11-19T12:24:59;100778.50;;;15.05;100.00
21111;BME280;10713;51.912;4.494;2023-11-19T12:27:24;100777.34;;;14.95;100.00
21111;BME280;10713;51.912;4.494;2023-11-19T12:29:51;100790.69;;;14.93;100.00
21111;BME280;10713;51.912;4.494;2023-11-19T12:32:17;100783.75;;;14.91;100.00
21111;BME280;10713;51.912;4.494;2023-11-19T12:34:42;100773.41;;;14.86;100.00
21111;BME280;10713;51.912;4.494;2023-11-19T12:37:09;100775.28;;;14.84;100.00
21111;BME280;10713;51.912;4.494;2023-11-19T12:39:35;100764.44;;;14.73;100.00
21111;BME280;10713;51.912;4.494;2023-11-19T12:42:00;100775.91;;;14.73;100.00
21111;BME280;10713;51.912;4.494;2023-11-19T12:44:26;100770.78;;;14.70;100.00
21111;BME280;10713;51.912;4.494;2023-11-19T12:47:02;100776.88;;;14.72;100.00
21111;BME280;10713;51.912;4.494;2023-11-19T12:49:28;100778.91;;;14.67;100.00
21111;BME280;10713;51.912;4.494;2023-11-19T12:51:53;100784.50;;;14.62;100.00
21111;BME280;10713;51.912;4.494;2023-11-19T12:54:18;100777.66;;;14.58;100.00
21111;BME280;10713;51.912;4.494;2023-11-19T12:56:53;100781.75;;;14.48;100.00
21111;BME280;10713;51.912;4.494;2023-11-19T12:59:18;100787.25;;;14.45;100.00
21111;BME280;10713;51.912;4.494;2023-11-19T13:02:02;100789.00;;;14.45;100.00
21111;BME280;10713;51.912;4.494;2023-11-19T13:04:30;100785.69;;;14.41;100.00